地図

経路データ

SID SEASON NUMBER BASIN SUBBASIN NAME ISO_TIME NATURE LAT LON WMO_WIND WMO_PRES WMO_AGENCY TRACK_TYPE DIST2LAND LANDFALL IFLAG USA_AGENCY USA_ATCF_ID USA_LAT USA_LON USA_RECORD USA_STATUS USA_WIND USA_PRES USA_SSHS USA_R34_NE USA_R34_SE USA_R34_SW USA_R34_NW USA_R50_NE USA_R50_SE USA_R50_SW USA_R50_NW USA_R64_NE USA_R64_SE USA_R64_SW USA_R64_NW USA_POCI USA_ROCI USA_RMW USA_EYE TOKYO_LAT TOKYO_LON TOKYO_GRADE TOKYO_WIND TOKYO_PRES TOKYO_R50_DIR TOKYO_R50_LONG TOKYO_R50_SHORT TOKYO_R30_DIR TOKYO_R30_LONG TOKYO_R30_SHORT TOKYO_LAND CMA_LAT CMA_LON CMA_CAT CMA_WIND CMA_PRES HKO_LAT HKO_LON HKO_CAT HKO_WIND HKO_PRES NEWDELHI_LAT NEWDELHI_LON NEWDELHI_GRADE NEWDELHI_WIND NEWDELHI_PRES NEWDELHI_CI NEWDELHI_DP NEWDELHI_POCI REUNION_LAT REUNION_LON REUNION_TYPE REUNION_WIND REUNION_PRES REUNION_TNUM REUNION_CI REUNION_RMW REUNION_R34_NE REUNION_R34_SE REUNION_R34_SW REUNION_R34_NW REUNION_R50_NE REUNION_R50_SE REUNION_R50_SW REUNION_R50_NW REUNION_R64_NE REUNION_R64_SE REUNION_R64_SW REUNION_R64_NW BOM_LAT BOM_LON BOM_TYPE BOM_WIND BOM_PRES BOM_TNUM BOM_CI BOM_RMW BOM_R34_NE BOM_R34_SE BOM_R34_SW BOM_R34_NW BOM_R50_NE BOM_R50_SE BOM_R50_SW BOM_R50_NW BOM_R64_NE BOM_R64_SE BOM_R64_SW BOM_R64_NW BOM_ROCI BOM_POCI BOM_EYE BOM_POS_METHOD BOM_PRES_METHOD NADI_LAT NADI_LON NADI_CAT NADI_WIND NADI_PRES WELLINGTON_LAT WELLINGTON_LON WELLINGTON_WIND WELLINGTON_PRES DS824_LAT DS824_LON DS824_STAGE DS824_WIND DS824_PRES TD9636_LAT TD9636_LON TD9636_STAGE TD9636_WIND TD9636_PRES TD9635_LAT TD9635_LON TD9635_WIND TD9635_PRES TD9635_ROCI NEUMANN_LAT NEUMANN_LON NEUMANN_CLASS NEUMANN_WIND NEUMANN_PRES MLC_LAT MLC_LON MLC_CLASS MLC_WIND MLC_PRES USA_GUST BOM_GUST BOM_GUST_PER REUNION_GUST REUNION_GUST_PER USA_SEAHGT USA_SEARAD_NE USA_SEARAD_SE USA_SEARAD_SW USA_SEARAD_NW STORM_SPEED STORM_DIR
1995363S17051 1996 99 SI MM B29596 1995-12-28 12:00:00 TS -17.3000 50.8000 20 1004 reunion main 120 120 _____O________ -1 -17.3000 50.8000 2 20 1004 1.50000 1.50000 7 137
1995363S17051 1996 99 SI MM B29596 1995-12-28 15:00:00 TS -17.5525 51.0449 main 155 155 _____P________ -1 -17.5525 51.0449 2 22 1002 7 136
1995363S17051 1996 99 SI MM B29596 1995-12-28 18:00:00 TS -17.8000 51.3000 25 1000 reunion main 190 190 _____O________ -1 -17.8000 51.3000 2 25 1000 2.00000 2.00000 7 135
1995363S17051 1996 99 SI MM B29596 1995-12-28 21:00:00 TS -18.0425 51.5650 main 224 224 _____P________ -1 -18.0425 51.5650 2 27 999 7 136
1995363S17051 1996 99 SI MM B29596 1995-12-29 00:00:00 TS -18.3000 51.8000 30 998 reunion main 252 252 _____O________ -1 -18.3000 51.8000 2 30 998 2.50000 2.50000 7 144
1995363S17051 1996 99 SI MM B29596 1995-12-29 03:00:00 TS -18.5925 51.9949 main 277 277 _____P________ -1 -18.5925 51.9949 2 30 998 7 155
1995363S17051 1996 99 SI MM B29596 1995-12-29 06:00:00 TS -18.9000 52.1000 30 998 reunion main 295 295 _____O________ -1 -18.9000 52.1000 2 30 998 2.50000 2.50000 6 173
1995363S17051 1996 99 SI MM B29596 1995-12-29 09:00:00 TS -19.2150 52.0727 main 305 300 _____P________ -1 -19.2150 52.0727 2 30 997 6 189
1995363S17051 1996 99 SI MM B29596 1995-12-29 12:00:00 TS -19.5000 52.0000 30 997 reunion main 307 307 _____O________ -1 -19.5000 52.0000 2 30 997 2.50000 2.50000 5 190
1995363S17051 1996 99 SI MM B29596 1995-12-29 15:00:00 TS -19.7000 51.9775 main 314 314 _____P________ -1 -19.7000 51.9775 2 30 996 4 0
1995363S17051 1996 99 SI MM B29596 1995-12-29 18:00:00 TS -19.9000 52.0000 30 996 reunion main 320 320 _____O________ -1 -19.9000 52.0000 2 30 996 2.50000 2.50000 5 169
1995363S17051 1996 99 SI MM B29596 1995-12-29 21:00:00 TS -20.2000 52.0774 main 337 318 _____P________ -1 -20.2000 52.0774 2 30 995 6 162
1995363S17051 1996 99 SI MM B29596 1995-12-30 00:00:00 TS -20.5000 52.2000 30 995 reunion main 318 304 _____O________ -1 -20.5000 52.2000 2 30 995 2.50000 2.50000 6 154
1995363S17051 1996 99 SI MM B29596 1995-12-30 03:00:00 TS -20.7150 52.3425 main 304 281 _____P________ -1 -20.7150 52.3425 2 30 996 5 145
1995363S17051 1996 99 SI MM B29596 1995-12-30 06:00:00 TS -20.9000 52.5000 30 997 reunion main 281 259 _____O________ -1 -20.9000 52.5000 2 30 997 2.50000 2.50000 5 140
1995363S17051 1996 99 SI MM B29596 1995-12-30 09:00:00 TS -21.0700 52.6650 main 259 249 _____P________ -1 -21.0700 52.6650 2 30 997 5 145
1995363S17051 1996 99 SI MM B29596 1995-12-30 12:00:00 TS -21.3000 52.8000 30 997 reunion main 249 242 _____O________ -1 -21.3000 52.8000 2 30 997 2.50000 2.50000 6 161
1995363S17051 1996 99 SI MM B29596 1995-12-30 15:00:00 TS -21.6475 52.8799 main 244 244 _____P________ -1 -21.6475 52.8799 2 30 997 8 173
1995363S17051 1996 99 SI MM B29596 1995-12-30 18:00:00 TS -22.1000 52.9000 30 997 reunion main 262 262 _____O________ -1 -22.1000 52.9000 2 30 997 2.00000 2.50000 10 182
1995363S17051 1996 99 SI MM B29596 1995-12-30 21:00:00 TS -22.6425 52.8429 main 295 295 _____P________ -1 -22.6425 52.8429 2 30 997 11 185
1995363S17051 1996 99 SI MM B29596 1995-12-31 00:00:00 TS -23.2000 52.8000 30 997 reunion main 333 333 _____O________ -1 -23.2000 52.8000 2 30 997 1.50000 2.50000 10 0
1995363S17051 1996 99 SI MM B29596 1995-12-31 03:00:00 TS -23.6775 52.8646 main 364 364 _____P________ -1 -23.6775 52.8646 2 27 998 9 169
1995363S17051 1996 99 SI MM B29596 1995-12-31 06:00:00 TS -24.1000 53.0000 25 999 reunion main 391 _____O________ -1 -24.1000 53.0000 2 25 999 1.00000 2.00000 9 164

IBTrACS Databaseについて

本データベースは、米国NOAAが公開する1842年以降の世界の熱帯低気圧のベストトラックデータアーカイブInternational Best Track Archive for Climate Stewardship (IBTrACS)を、ウェブで閲覧しやすい形式に変換したものです。

最終更新日:2021-10-21